sensor_id;sensor_type;location;lat;lon;timestamp;temperature;humidity
68801;SHT31;55784;50.734;7.086;2023-06-22T00:02:15;22.90;76.21
68801;SHT31;55784;50.734;7.086;2023-06-22T00:04:41;22.90;76.19
68801;SHT31;55784;50.734;7.086;2023-06-22T00:07:06;22.88;76.29
68801;SHT31;55784;50.734;7.086;2023-06-22T00:09:32;22.87;76.12
68801;SHT31;55784;50.734;7.086;2023-06-22T00:11:58;22.81;76.56
68801;SHT31;55784;50.734;7.086;2023-06-22T00:14:23;22.83;76.81
68801;SHT31;55784;50.734;7.086;2023-06-22T00:16:49;22.78;76.30
68801;SHT31;55784;50.734;7.086;2023-06-22T00:19:15;22.81;76.03
68801;SHT31;55784;50.734;7.086;2023-06-22T00:21:41;22.88;74.59
68801;SHT31;55784;50.734;7.086;2023-06-22T00:24:08;22.87;74.13
68801;SHT31;55784;50.734;7.086;2023-06-22T00:26:33;22.80;74.20
68801;SHT31;55784;50.734;7.086;2023-06-22T00:28:58;22.68;74.73
68801;SHT31;55784;50.734;7.086;2023-06-22T00:31:24;22.61;74.74
68801;SHT31;55784;50.734;7.086;2023-06-22T00:33:49;22.53;75.36
68801;SHT31;55784;50.734;7.086;2023-06-22T00:36:16;22.54;75.45
68801;SHT31;55784;50.734;7.086;2023-06-22T00:38:43;22.51;75.88
68801;SHT31;55784;50.734;7.086;2023-06-22T00:41:08;22.46;76.06
68801;SHT31;55784;50.734;7.086;2023-06-22T00:43:33;22.44;75.87
68801;SHT31;55784;50.734;7.086;2023-06-22T00:45:58;22.43;75.61
68801;SHT31;55784;50.734;7.086;2023-06-22T00:48:24;22.51;75.75
68801;SHT31;55784;50.734;7.086;2023-06-22T00:50:50;22.51;75.43
68801;SHT31;55784;50.734;7.086;2023-06-22T00:53:16;22.50;75.84
68801;SHT31;55784;50.734;7.086;2023-06-22T00:55:44;22.50;75.56
68801;SHT31;55784;50.734;7.086;2023-06-22T00:58:12;22.44;75.84
68801;SHT31;55784;50.734;7.086;2023-06-22T01:00:39;22.46;75.37
68801;SHT31;55784;50.734;7.086;2023-06-22T01:03:05;22.39;76.11
68801;SHT31;55784;50.734;7.086;2023-06-22T01:05:34;22.33;76.45
68801;SHT31;55784;50.734;7.086;2023-06-22T01:08:05;22.29;76.57
68801;SHT31;55784;50.734;7.086;2023-06-22T01:10:51;22.30;76.65
68801;SHT31;55784;50.734;7.086;2023-06-22T01:16:28;22.23;77.03
68801;SHT31;55784;50.734;7.086;2023-06-22T01:18:55;22.26;76.91
68801;SHT31;55784;50.734;7.086;2023-06-22T01:21:23;22.26;77.01
68801;SHT31;55784;50.734;7.086;2023-06-22T01:26:41;22.32;77.28
68801;SHT31;55784;50.734;7.086;2023-06-22T01:29:08;22.36;76.98
68801;SHT31;55784;50.734;7.086;2023-06-22T01:31:37;22.39;76.66
68801;SHT31;55784;50.734;7.086;2023-06-22T01:34:05;22.41;76.42
68801;SHT31;55784;50.734;7.086;2023-06-22T01:36:32;22.47;75.92
68801;SHT31;55784;50.734;7.086;2023-06-22T01:38:58;22.50;75.91
68801;SHT31;55784;50.734;7.086;2023-06-22T01:41:26;22.51;75.81
68801;SHT31;55784;50.734;7.086;2023-06-22T01:43:53;22.56;75.65
68801;SHT31;55784;50.734;7.086;2023-06-22T01:46:18;22.56;75.68
68801;SHT31;55784;50.734;7.086;2023-06-22T01:48:45;22.56;75.55
68801;SHT31;55784;50.734;7.086;2023-06-22T01:51:11;22.57;75.63
68801;SHT31;55784;50.734;7.086;2023-06-22T01:53:37;22.61;75.43
68801;SHT31;55784;50.734;7.086;2023-06-22T01:56:02;22.57;75.57
68801;SHT31;55784;50.734;7.086;2023-06-22T01:58:29;22.54;75.89
68801;SHT31;55784;50.734;7.086;2023-06-22T02:01:02;22.47;76.07
68801;SHT31;55784;50.734;7.086;2023-06-22T02:03:34;22.43;76.09
68801;SHT31;55784;50.734;7.086;2023-06-22T02:06:11;22.39;76.19
68801;SHT31;55784;50.734;7.086;2023-06-22T02:08:59;22.41;76.14
68801;SHT31;55784;50.734;7.086;2023-06-22T02:11:26;22.40;76.11
68801;SHT31;55784;50.734;7.086;2023-06-22T02:13:53;22.39;76.11
68801;SHT31;55784;50.734;7.086;2023-06-22T02:16:19;22.36;75.99
68801;SHT31;55784;50.734;7.086;2023-06-22T02:18:50;22.37;76.51
68801;SHT31;55784;50.734;7.086;2023-06-22T02:21:17;22.32;77.13
68801;SHT31;55784;50.734;7.086;2023-06-22T02:23:42;22.33;77.87
68801;SHT31;55784;50.734;7.086;2023-06-22T02:26:08;22.30;78.10
68801;SHT31;55784;50.734;7.086;2023-06-22T02:28:33;22.33;78.13
68801;SHT31;55784;50.734;7.086;2023-06-22T02:30:59;22.35;78.19
68801;SHT31;55784;50.734;7.086;2023-06-22T02:33:24;22.35;78.28
68801;SHT31;55784;50.734;7.086;2023-06-22T02:35:50;22.39;78.18
68801;SHT31;55784;50.734;7.086;2023-06-22T02:38:15;22.37;78.09
68801;SHT31;55784;50.734;7.086;2023-06-22T02:40:40;22.32;78.17
68801;SHT31;55784;50.734;7.086;2023-06-22T02:43:06;22.37;78.20
68801;SHT31;55784;50.734;7.086;2023-06-22T02:45:31;22.36;78.21
68801;SHT31;55784;50.734;7.086;2023-06-22T02:47:56;22.40;78.40
68801;SHT31;55784;50.734;7.086;2023-06-22T02:50:22;22.40;78.73
68801;SHT31;55784;50.734;7.086;2023-06-22T02:52:48;22.40;78.57
68801;SHT31;55784;50.734;7.086;2023-06-22T02:55:13;22.43;78.55
68801;SHT31;55784;50.734;7.086;2023-06-22T02:57:38;22.36;78.87
68801;SHT31;55784;50.734;7.086;2023-06-22T03:00:09;22.32;79.22
68801;SHT31;55784;50.734;7.086;2023-06-22T03:02:47;22.28;79.70
68801;SHT31;55784;50.734;7.086;2023-06-22T03:05:13;22.16;80.35
68801;SHT31;55784;50.734;7.086;2023-06-22T03:07:42;21.95;81.27
68801;SHT31;55784;50.734;7.086;2023-06-22T03:10:12;21.93;80.91
68801;SHT31;55784;50.734;7.086;2023-06-22T03:12:38;21.92;80.28
68801;SHT31;55784;50.734;7.086;2023-06-22T03:15:11;21.89;80.28
68801;SHT31;55784;50.734;7.086;2023-06-22T03:17:38;21.90;80.18
68801;SHT31;55784;50.734;7.086;2023-06-22T03:20:07;21.96;80.08
68801;SHT31;55784;50.734;7.086;2023-06-22T03:22:40;22.03;80.06
68801;SHT31;55784;50.734;7.086;2023-06-22T03:25:07;22.02;80.15
68801;SHT31;55784;50.734;7.086;2023-06-22T03:27:38;22.05;81.18
68801;SHT31;55784;50.734;7.086;2023-06-22T03:30:04;21.93;81.25
68801;SHT31;55784;50.734;7.086;2023-06-22T03:32:29;21.82;81.57
68801;SHT31;55784;50.734;7.086;2023-06-22T03:34:55;21.81;81.78
68801;SHT31;55784;50.734;7.086;2023-06-22T03:37:26;21.81;82.08
68801;SHT31;55784;50.734;7.086;2023-06-22T03:39:52;21.72;82.05
68801;SHT31;55784;50.734;7.086;2023-06-22T03:42:17;21.61;82.11
68801;SHT31;55784;50.734;7.086;2023-06-22T03:44:43;21.59;82.57
68801;SHT31;55784;50.734;7.086;2023-06-22T03:47:08;21.57;82.50
68801;SHT31;55784;50.734;7.086;2023-06-22T03:49:34;21.54;82.42
68801;SHT31;55784;50.734;7.086;2023-06-22T03:52:00;21.59;82.48
68801;SHT31;55784;50.734;7.086;2023-06-22T03:54:28;21.69;82.44
68801;SHT31;55784;50.734;7.086;2023-06-22T03:56:53;21.74;82.13
68801;SHT31;55784;50.734;7.086;2023-06-22T03:59:18;21.82;82.08
68801;SHT31;55784;50.734;7.086;2023-06-22T04:01:44;21.86;81.88
68801;SHT31;55784;50.734;7.086;2023-06-22T04:04:10;21.96;81.44
68801;SHT31;55784;50.734;7.086;2023-06-22T04:06:35;22.09;81.05
68801;SHT31;55784;50.734;7.086;2023-06-22T04:09:00;22.21;80.58
68801;SHT31;55784;50.734;7.086;2023-06-22T04:11:26;22.41;80.02
68801;SHT31;55784;50.734;7.086;2023-06-22T04:13:51;22.54;79.51
68801;SHT31;55784;50.734;7.086;2023-06-22T04:16:17;22.63;79.13
68801;SHT31;55784;50.734;7.086;2023-06-22T04:18:42;22.51;78.41
68801;SHT31;55784;50.734;7.086;2023-06-22T04:21:07;22.35;78.76
68801;SHT31;55784;50.734;7.086;2023-06-22T04:23:32;22.13;79.70
68801;SHT31;55784;50.734;7.086;2023-06-22T04:25:58;22.20;79.55
68801;SHT31;55784;50.734;7.086;2023-06-22T04:28:24;22.28;79.26
68801;SHT31;55784;50.734;7.086;2023-06-22T04:30:49;22.26;79.42
68801;SHT31;55784;50.734;7.086;2023-06-22T04:33:16;22.35;79.36
68801;SHT31;55784;50.734;7.086;2023-06-22T04:35:44;22.39;79.24
68801;SHT31;55784;50.734;7.086;2023-06-22T04:38:12;22.44;79.30
68801;SHT31;55784;50.734;7.086;2023-06-22T04:40:41;22.54;79.25
68801;SHT31;55784;50.734;7.086;2023-06-22T04:43:06;22.64;79.14
68801;SHT31;55784;50.734;7.086;2023-06-22T04:45:32;22.77;79.30
68801;SHT31;55784;50.734;7.086;2023-06-22T04:47:58;22.84;79.19
68801;SHT31;55784;50.734;7.086;2023-06-22T04:50:24;22.83;79.14
68801;SHT31;55784;50.734;7.086;2023-06-22T04:52:50;22.90;78.91
68801;SHT31;55784;50.734;7.086;2023-06-22T04:55:16;22.87;79.06
68801;SHT31;55784;50.734;7.086;2023-06-22T04:57:45;22.92;79.13
68801;SHT31;55784;50.734;7.086;2023-06-22T05:00:17;22.77;79.76
68801;SHT31;55784;50.734;7.086;2023-06-22T05:02:44;22.95;79.22
68801;SHT31;55784;50.734;7.086;2023-06-22T05:05:10;23.10;78.90
68801;SHT31;55784;50.734;7.086;2023-06-22T05:07:39;23.12;79.11
68801;SHT31;55784;50.734;7.086;2023-06-22T05:10:08;23.25;78.58
68801;SHT31;55784;50.734;7.086;2023-06-22T05:12:38;23.41;77.61
68801;SHT31;55784;50.734;7.086;2023-06-22T05:15:05;23.80;76.62
68801;SHT31;55784;50.734;7.086;2023-06-22T05:17:31;24.38;75.26
68801;SHT31;55784;50.734;7.086;2023-06-22T05:19:56;24.84;73.44
68801;SHT31;55784;50.734;7.086;2023-06-22T05:22:21;25.42;71.55
68801;SHT31;55784;50.734;7.086;2023-06-22T05:24:47;25.38;71.08
68801;SHT31;55784;50.734;7.086;2023-06-22T05:27:13;25.49;70.75
68801;SHT31;55784;50.734;7.086;2023-06-22T05:29:39;25.86;69.98
68801;SHT31;55784;50.734;7.086;2023-06-22T05:32:05;25.54;70.27
68801;SHT31;55784;50.734;7.086;2023-06-22T05:34:31;26.00;70.21
68801;SHT31;55784;50.734;7.086;2023-06-22T05:36:56;25.56;71.13
68801;SHT31;55784;50.734;7.086;2023-06-22T05:39:24;25.33;72.07
68801;SHT31;55784;50.734;7.086;2023-06-22T05:41:49;25.07;72.49
68801;SHT31;55784;50.734;7.086;2023-06-22T05:44:15;25.08;72.75
68801;SHT31;55784;50.734;7.086;2023-06-22T05:46:42;25.84;70.81
68801;SHT31;55784;50.734;7.086;2023-06-22T05:49:10;26.10;69.59
68801;SHT31;55784;50.734;7.086;2023-06-22T05:51:35;26.23;68.99
68801;SHT31;55784;50.734;7.086;2023-06-22T05:54:00;25.49;71.23
68801;SHT31;55784;50.734;7.086;2023-06-22T05:56:26;24.77;73.27
68801;SHT31;55784;50.734;7.086;2023-06-22T05:58:51;24.81;73.44
68801;SHT31;55784;50.734;7.086;2023-06-22T06:01:16;24.58;74.35
68801;SHT31;55784;50.734;7.086;2023-06-22T06:03:42;24.44;74.65
68801;SHT31;55784;50.734;7.086;2023-06-22T06:06:07;24.10;75.44
68801;SHT31;55784;50.734;7.086;2023-06-22T06:08:33;24.07;75.89
68801;SHT31;55784;50.734;7.086;2023-06-22T06:10:58;24.09;75.70
68801;SHT31;55784;50.734;7.086;2023-06-22T06:13:24;24.40;74.82
68801;SHT31;55784;50.734;7.086;2023-06-22T06:15:49;24.14;75.61
68801;SHT31;55784;50.734;7.086;2023-06-22T06:18:19;23.97;75.99
68801;SHT31;55784;50.734;7.086;2023-06-22T06:20:44;23.82;76.61
68801;SHT31;55784;50.734;7.086;2023-06-22T06:23:10;23.89;76.66
68801;SHT31;55784;50.734;7.086;2023-06-22T06:25:35;23.93;76.42
68801;SHT31;55784;50.734;7.086;2023-06-22T06:28:00;23.99;76.24
68801;SHT31;55784;50.734;7.086;2023-06-22T06:30:26;24.37;74.94
68801;SHT31;55784;50.734;7.086;2023-06-22T06:32:51;24.54;74.09
68801;SHT31;55784;50.734;7.086;2023-06-22T06:35:16;24.38;74.69
68801;SHT31;55784;50.734;7.086;2023-06-22T06:37:48;24.20;75.28
68801;SHT31;55784;50.734;7.086;2023-06-22T06:40:14;23.85;75.93
68801;SHT31;55784;50.734;7.086;2023-06-22T06:42:45;23.80;76.07
68801;SHT31;55784;50.734;7.086;2023-06-22T06:45:16;23.70;76.23
68801;SHT31;55784;50.734;7.086;2023-06-22T06:47:42;23.89;75.90
68801;SHT31;55784;50.734;7.086;2023-06-22T06:50:08;23.72;76.25
68801;SHT31;55784;50.734;7.086;2023-06-22T06:52:34;24.07;75.51
68801;SHT31;55784;50.734;7.086;2023-06-22T06:55:06;24.17;74.96
68801;SHT31;55784;50.734;7.086;2023-06-22T06:57:34;23.95;75.52
68801;SHT31;55784;50.734;7.086;2023-06-22T07:00:00;24.03;75.40
68801;SHT31;55784;50.734;7.086;2023-06-22T07:02:27;24.07;75.24
68801;SHT31;55784;50.734;7.086;2023-06-22T07:04:57;24.00;75.32
68801;SHT31;55784;50.734;7.086;2023-06-22T07:07:23;24.07;75.47
68801;SHT31;55784;50.734;7.086;2023-06-22T07:09:49;24.34;74.71
68801;SHT31;55784;50.734;7.086;2023-06-22T07:12:14;24.33;75.07
68801;SHT31;55784;50.734;7.086;2023-06-22T07:14:39;24.44;75.21
68801;SHT31;55784;50.734;7.086;2023-06-22T07:17:05;24.02;75.91
68801;SHT31;55784;50.734;7.086;2023-06-22T07:19:32;24.18;75.92
68801;SHT31;55784;50.734;7.086;2023-06-22T07:21:58;24.36;75.45
68801;SHT31;55784;50.734;7.086;2023-06-22T07:24:24;24.57;75.22
68801;SHT31;55784;50.734;7.086;2023-06-22T07:26:50;24.79;74.16
68801;SHT31;55784;50.734;7.086;2023-06-22T07:29:22;24.69;74.17
68801;SHT31;55784;50.734;7.086;2023-06-22T07:31:48;24.96;72.91
68801;SHT31;55784;50.734;7.086;2023-06-22T07:34:14;24.56;74.19
68801;SHT31;55784;50.734;7.086;2023-06-22T07:36:40;24.91;73.06
68801;SHT31;55784;50.734;7.086;2023-06-22T07:39:05;25.67;71.77
68801;SHT31;55784;50.734;7.086;2023-06-22T07:41:31;26.30;69.51
68801;SHT31;55784;50.734;7.086;2023-06-22T07:43:57;26.05;69.88
68801;SHT31;55784;50.734;7.086;2023-06-22T07:46:22;26.03;71.03
68801;SHT31;55784;50.734;7.086;2023-06-22T07:48:48;25.58;71.65
68801;SHT31;55784;50.734;7.086;2023-06-22T07:51:13;25.29;72.53
68801;SHT31;55784;50.734;7.086;2023-06-22T07:53:41;25.22;72.66
68801;SHT31;55784;50.734;7.086;2023-06-22T07:56:06;25.30;72.11
68801;SHT31;55784;50.734;7.086;2023-06-22T07:58:34;25.56;71.80
68801;SHT31;55784;50.734;7.086;2023-06-22T08:01:00;25.36;71.95
68801;SHT31;55784;50.734;7.086;2023-06-22T08:03:25;25.19;72.46
68801;SHT31;55784;50.734;7.086;2023-06-22T08:05:50;25.23;72.74
68801;SHT31;55784;50.734;7.086;2023-06-22T08:08:16;25.74;71.29
68801;SHT31;55784;50.734;7.086;2023-06-22T08:10:41;25.66;71.12
68801;SHT31;55784;50.734;7.086;2023-06-22T08:13:07;25.43;71.74
68801;SHT31;55784;50.734;7.086;2023-06-22T08:15:33;25.43;72.27
68801;SHT31;55784;50.734;7.086;2023-06-22T08:17:58;25.82;71.56
68801;SHT31;55784;50.734;7.086;2023-06-22T08:20:25;25.96;70.58
68801;SHT31;55784;50.734;7.086;2023-06-22T08:22:50;25.66;71.67
68801;SHT31;55784;50.734;7.086;2023-06-22T08:25:15;25.58;72.11
68801;SHT31;55784;50.734;7.086;2023-06-22T08:27:44;25.60;72.01
68801;SHT31;55784;50.734;7.086;2023-06-22T08:30:11;25.89;71.47
68801;SHT31;55784;50.734;7.086;2023-06-22T08:32:36;25.80;71.53
68801;SHT31;55784;50.734;7.086;2023-06-22T08:35:01;25.82;71.93
68801;SHT31;55784;50.734;7.086;2023-06-22T08:37:27;25.59;73.01
68801;SHT31;55784;50.734;7.086;2023-06-22T08:39:58;25.98;71.82
68801;SHT31;55784;50.734;7.086;2023-06-22T08:42:24;25.86;72.45
68801;SHT31;55784;50.734;7.086;2023-06-22T08:44:50;26.00;71.80
68801;SHT31;55784;50.734;7.086;2023-06-22T08:47:16;26.55;70.73
68801;SHT31;55784;50.734;7.086;2023-06-22T08:49:41;26.81;69.73
68801;SHT31;55784;50.734;7.086;2023-06-22T08:52:07;26.28;71.16
68801;SHT31;55784;50.734;7.086;2023-06-22T08:54:32;26.35;71.35
68801;SHT31;55784;50.734;7.086;2023-06-22T08:57:00;26.28;71.72
68801;SHT31;55784;50.734;7.086;2023-06-22T08:59:25;26.54;70.95
68801;SHT31;55784;50.734;7.086;2023-06-22T09:01:50;27.03;69.69
68801;SHT31;55784;50.734;7.086;2023-06-22T09:04:16;27.30;68.80
68801;SHT31;55784;50.734;7.086;2023-06-22T09:06:41;27.46;68.15
68801;SHT31;55784;50.734;7.086;2023-06-22T09:09:11;27.66;66.69
68801;SHT31;55784;50.734;7.086;2023-06-22T09:11:37;27.40;67.80
68801;SHT31;55784;50.734;7.086;2023-06-22T09:14:02;27.80;66.77
68801;SHT31;55784;50.734;7.086;2023-06-22T09:16:29;28.22;65.74
68801;SHT31;55784;50.734;7.086;2023-06-22T09:18:54;28.68;64.57
68801;SHT31;55784;50.734;7.086;2023-06-22T09:21:19;28.62;64.18
68801;SHT31;55784;50.734;7.086;2023-06-22T09:23:44;28.65;63.58
68801;SHT31;55784;50.734;7.086;2023-06-22T09:26:15;28.22;64.41
68801;SHT31;55784;50.734;7.086;2023-06-22T09:28:40;28.55;63.89
68801;SHT31;55784;50.734;7.086;2023-06-22T09:31:05;28.79;63.82
68801;SHT31;55784;50.734;7.086;2023-06-22T09:33:31;28.75;63.62
68801;SHT31;55784;50.734;7.086;2023-06-22T09:35:57;28.73;63.95
68801;SHT31;55784;50.734;7.086;2023-06-22T09:38:22;28.75;63.44
68801;SHT31;55784;50.734;7.086;2023-06-22T09:40:47;28.93;63.73
68801;SHT31;55784;50.734;7.086;2023-06-22T09:43:13;29.24;62.73
68801;SHT31;55784;50.734;7.086;2023-06-22T09:45:38;29.27;62.68
68801;SHT31;55784;50.734;7.086;2023-06-22T09:48:04;29.43;62.50
68801;SHT31;55784;50.734;7.086;2023-06-22T09:50:29;29.54;62.11
68801;SHT31;55784;50.734;7.086;2023-06-22T09:52:54;29.43;62.51
68801;SHT31;55784;50.734;7.086;2023-06-22T09:55:23;29.24;62.54
68801;SHT31;55784;50.734;7.086;2023-06-22T09:57:48;29.04;63.01
68801;SHT31;55784;50.734;7.086;2023-06-22T10:00:16;28.95;63.75
68801;SHT31;55784;50.734;7.086;2023-06-22T10:02:42;28.78;64.27
68801;SHT31;55784;50.734;7.086;2023-06-22T10:05:08;28.58;64.54
68801;SHT31;55784;50.734;7.086;2023-06-22T10:07:33;28.51;65.09
68801;SHT31;55784;50.734;7.086;2023-06-22T10:09:59;28.32;65.59
68801;SHT31;55784;50.734;7.086;2023-06-22T10:12:25;28.27;65.93
68801;SHT31;55784;50.734;7.086;2023-06-22T10:14:50;28.12;65.97
68801;SHT31;55784;50.734;7.086;2023-06-22T10:17:16;27.77;67.01
68801;SHT31;55784;50.734;7.086;2023-06-22T10:19:41;27.22;68.80
68801;SHT31;55784;50.734;7.086;2023-06-22T10:22:06;27.02;70.46
68801;SHT31;55784;50.734;7.086;2023-06-22T10:24:33;26.85;69.94
68801;SHT31;55784;50.734;7.086;2023-06-22T10:26:58;26.78;69.97
68801;SHT31;55784;50.734;7.086;2023-06-22T10:29:23;26.86;70.63
68801;SHT31;55784;50.734;7.086;2023-06-22T10:31:49;26.89;70.57
68801;SHT31;55784;50.734;7.086;2023-06-22T10:34:14;26.94;71.52
68801;SHT31;55784;50.734;7.086;2023-06-22T10:36:41;26.94;71.90
68801;SHT31;55784;50.734;7.086;2023-06-22T10:39:12;26.13;79.45
68801;SHT31;55784;50.734;7.086;2023-06-22T10:41:37;24.47;92.60
68801;SHT31;55784;50.734;7.086;2023-06-22T10:44:03;23.38;98.78
68801;SHT31;55784;50.734;7.086;2023-06-22T10:46:28;23.45;98.56
68801;SHT31;55784;50.734;7.086;2023-06-22T10:48:53;23.52;98.78
68801;SHT31;55784;50.734;7.086;2023-06-22T10:51:20;23.56;99.07
68801;SHT31;55784;50.734;7.086;2023-06-22T10:53:46;23.59;98.51
68801;SHT31;55784;50.734;7.086;2023-06-22T10:56:11;23.51;96.19
68801;SHT31;55784;50.734;7.086;2023-06-22T10:58:36;23.39;96.95
68801;SHT31;55784;50.734;7.086;2023-06-22T11:01:02;23.45;97.59
68801;SHT31;55784;50.734;7.086;2023-06-22T11:03:28;23.24;96.60
68801;SHT31;55784;50.734;7.086;2023-06-22T11:05:53;22.73;99.99
68801;SHT31;55784;50.734;7.086;2023-06-22T11:08:19;22.28;99.99
68801;SHT31;55784;50.734;7.086;2023-06-22T11:10:44;22.33;99.99
68801;SHT31;55784;50.734;7.086;2023-06-22T11:13:09;22.29;99.45
68801;SHT31;55784;50.734;7.086;2023-06-22T11:15:36;22.51;99.10
68801;SHT31;55784;50.734;7.086;2023-06-22T11:18:01;22.57;98.03
68801;SHT31;55784;50.734;7.086;2023-06-22T11:20:27;22.12;97.25
68801;SHT31;55784;50.734;7.086;2023-06-22T11:22:52;22.09;97.80
68801;SHT31;55784;50.734;7.086;2023-06-22T11:25:17;22.21;99.09
68801;SHT31;55784;50.734;7.086;2023-06-22T11:27:43;22.32;98.61
68801;SHT31;55784;50.734;7.086;2023-06-22T11:30:08;22.53;98.68
68801;SHT31;55784;50.734;7.086;2023-06-22T11:32:34;22.41;96.44
68801;SHT31;55784;50.734;7.086;2023-06-22T11:34:59;22.65;96.89
68801;SHT31;55784;50.734;7.086;2023-06-22T11:37:25;23.08;96.22
68801;SHT31;55784;50.734;7.086;2023-06-22T11:39:51;23.48;94.98
68801;SHT31;55784;50.734;7.086;2023-06-22T11:42:18;23.85;92.97
68801;SHT31;55784;50.734;7.086;2023-06-22T11:44:44;23.93;92.06
68801;SHT31;55784;50.734;7.086;2023-06-22T11:47:09;24.56;91.68
68801;SHT31;55784;50.734;7.086;2023-06-22T11:49:34;24.79;90.96
68801;SHT31;55784;50.734;7.086;2023-06-22T11:52:00;24.28;89.53
68801;SHT31;55784;50.734;7.086;2023-06-22T11:54:25;24.16;89.60
68801;SHT31;55784;50.734;7.086;2023-06-22T11:56:50;23.97;91.67
68801;SHT31;55784;50.734;7.086;2023-06-22T11:59:16;23.86;91.39
68801;SHT31;55784;50.734;7.086;2023-06-22T12:01:41;24.12;91.83
68801;SHT31;55784;50.734;7.086;2023-06-22T12:04:07;24.30;90.73
68801;SHT31;55784;50.734;7.086;2023-06-22T12:06:37;24.50;90.08
68801;SHT31;55784;50.734;7.086;2023-06-22T12:09:03;24.60;90.16
68801;SHT31;55784;50.734;7.086;2023-06-22T12:11:30;24.84;89.02
68801;SHT31;55784;50.734;7.086;2023-06-22T12:13:55;24.81;88.13
68801;SHT31;55784;50.734;7.086;2023-06-22T12:16:20;24.38;88.47
68801;SHT31;55784;50.734;7.086;2023-06-22T12:18:47;24.36;88.85
68801;SHT31;55784;50.734;7.086;2023-06-22T12:21:12;24.27;89.53
68801;SHT31;55784;50.734;7.086;2023-06-22T12:23:38;24.46;89.83
68801;SHT31;55784;50.734;7.086;2023-06-22T12:26:03;24.56;88.67
68801;SHT31;55784;50.734;7.086;2023-06-22T12:28:30;24.78;86.22
68801;SHT31;55784;50.734;7.086;2023-06-22T12:30:56;25.40;85.18
68801;SHT31;55784;50.734;7.086;2023-06-22T12:33:21;25.46;85.57
68801;SHT31;55784;50.734;7.086;2023-06-22T12:35:58;25.65;85.67
68801;SHT31;55784;50.734;7.086;2023-06-22T12:38:24;25.67;83.94
68801;SHT31;55784;50.734;7.086;2023-06-22T12:40:50;25.69;83.25
68801;SHT31;55784;50.734;7.086;2023-06-22T12:43:16;25.46;81.21
68801;SHT31;55784;50.734;7.086;2023-06-22T12:45:44;25.47;81.57
68801;SHT31;55784;50.734;7.086;2023-06-22T12:51:40;25.26;82.19
68801;SHT31;55784;50.734;7.086;2023-06-22T12:54:06;25.08;82.41
68801;SHT31;55784;50.734;7.086;2023-06-22T12:56:32;25.15;82.35
68801;SHT31;55784;50.734;7.086;2023-06-22T12:58:57;25.65;80.92
68801;SHT31;55784;50.734;7.086;2023-06-22T13:01:22;25.86;80.23
68801;SHT31;55784;50.734;7.086;2023-06-22T13:03:48;25.91;81.15
68801;SHT31;55784;50.734;7.086;2023-06-22T13:06:13;25.66;81.08
68801;SHT31;55784;50.734;7.086;2023-06-22T13:08:38;26.00;80.97
68801;SHT31;55784;50.734;7.086;2023-06-22T13:11:04;25.83;80.04
68801;SHT31;55784;50.734;7.086;2023-06-22T13:13:29;25.54;79.84
68801;SHT31;55784;50.734;7.086;2023-06-22T13:15:54;26.17;78.35
68801;SHT31;55784;50.734;7.086;2023-06-22T13:18:20;25.77;78.52
68801;SHT31;55784;50.734;7.086;2023-06-22T13:20:45;26.18;77.60
68801;SHT31;55784;50.734;7.086;2023-06-22T13:23:10;26.62;76.92
68801;SHT31;55784;50.734;7.086;2023-06-22T13:25:36;26.10;77.49
68801;SHT31;55784;50.734;7.086;2023-06-22T13:28:01;26.20;76.63
68801;SHT31;55784;50.734;7.086;2023-06-22T13:30:26;26.20;75.38
68801;SHT31;55784;50.734;7.086;2023-06-22T13:32:52;26.30;75.19
68801;SHT31;55784;50.734;7.086;2023-06-22T13:35:17;26.24;74.12
68801;SHT31;55784;50.734;7.086;2023-06-22T13:37:42;26.37;73.32
68801;SHT31;55784;50.734;7.086;2023-06-22T13:40:08;26.18;72.95
68801;SHT31;55784;50.734;7.086;2023-06-22T13:42:34;26.31;72.74
68801;SHT31;55784;50.734;7.086;2023-06-22T13:44:59;25.93;72.90
68801;SHT31;55784;50.734;7.086;2023-06-22T13:47:25;26.25;73.40
68801;SHT31;55784;50.734;7.086;2023-06-22T13:49:50;26.62;72.54
68801;SHT31;55784;50.734;7.086;2023-06-22T13:52:16;26.18;72.34
68801;SHT31;55784;50.734;7.086;2023-06-22T13:54:41;26.35;72.92
68801;SHT31;55784;50.734;7.086;2023-06-22T13:57:07;26.01;73.48
68801;SHT31;55784;50.734;7.086;2023-06-22T13:59:32;25.97;73.81
68801;SHT31;55784;50.734;7.086;2023-06-22T14:01:57;25.93;74.29
68801;SHT31;55784;50.734;7.086;2023-06-22T14:04:23;26.20;73.59
68801;SHT31;55784;50.734;7.086;2023-06-22T14:06:48;26.31;73.96
68801;SHT31;55784;50.734;7.086;2023-06-22T14:09:14;26.21;74.04
68801;SHT31;55784;50.734;7.086;2023-06-22T14:11:39;26.23;74.64
68801;SHT31;55784;50.734;7.086;2023-06-22T14:14:04;26.16;74.44
68801;SHT31;55784;50.734;7.086;2023-06-22T14:16:30;26.30;74.46
68801;SHT31;55784;50.734;7.086;2023-06-22T14:18:55;25.80;74.72
68801;SHT31;55784;50.734;7.086;2023-06-22T14:21:21;25.65;75.43
68801;SHT31;55784;50.734;7.086;2023-06-22T14:23:46;25.66;75.88
68801;SHT31;55784;50.734;7.086;2023-06-22T14:26:15;25.63;76.11
68801;SHT31;55784;50.734;7.086;2023-06-22T14:28:47;25.45;76.21
68801;SHT31;55784;50.734;7.086;2023-06-22T14:31:14;25.49;76.74
68801;SHT31;55784;50.734;7.086;2023-06-22T14:33:40;25.49;76.74
68801;SHT31;55784;50.734;7.086;2023-06-22T14:36:05;25.35;78.39
68801;SHT31;55784;50.734;7.086;2023-06-22T14:38:31;25.05;81.35
68801;SHT31;55784;50.734;7.086;2023-06-22T14:40:56;24.87;85.92
68801;SHT31;55784;50.734;7.086;2023-06-22T14:43:21;24.69;89.01
68801;SHT31;55784;50.734;7.086;2023-06-22T14:45:47;24.48;90.44
68801;SHT31;55784;50.734;7.086;2023-06-22T14:48:12;24.02;87.20
68801;SHT31;55784;50.734;7.086;2023-06-22T14:50:37;22.84;99.99
68801;SHT31;55784;50.734;7.086;2023-06-22T14:53:03;22.24;95.75
68801;SHT31;55784;50.734;7.086;2023-06-22T14:55:28;21.98;96.01
68801;SHT31;55784;50.734;7.086;2023-06-22T14:57:53;22.16;96.24
68801;SHT31;55784;50.734;7.086;2023-06-22T15:00:19;22.33;96.45
68801;SHT31;55784;50.734;7.086;2023-06-22T15:02:44;22.54;96.57
68801;SHT31;55784;50.734;7.086;2023-06-22T15:05:10;22.54;96.70
68801;SHT31;55784;50.734;7.086;2023-06-22T15:07:38;22.61;96.81
68801;SHT31;55784;50.734;7.086;2023-06-22T15:10:04;22.47;96.87
68801;SHT31;55784;50.734;7.086;2023-06-22T15:12:30;21.81;96.97
68801;SHT31;55784;50.734;7.086;2023-06-22T15:14:55;21.47;97.02
68801;SHT31;55784;50.734;7.086;2023-06-22T15:17:21;21.34;97.07
68801;SHT31;55784;50.734;7.086;2023-06-22T15:19:46;21.15;97.11
68801;SHT31;55784;50.734;7.086;2023-06-22T15:22:11;21.42;97.20
68801;SHT31;55784;50.734;7.086;2023-06-22T15:24:38;21.58;97.31
68801;SHT31;55784;50.734;7.086;2023-06-22T16:44:51;22.39;96.95
68801;SHT31;55784;50.734;7.086;2023-06-22T16:47:17;22.41;96.53
68801;SHT31;55784;50.734;7.086;2023-06-22T16:49:42;22.61;96.82
68801;SHT31;55784;50.734;7.086;2023-06-22T16:52:07;22.77;96.92